Portada
METAR-TAF:

METAR-TAF

Aeroports :

Wellington, Nova Zelanda

latitud: 41-20S, longitud: 174-48E, altitud: 12 m

Observació

L'informe es va fer fa 47 minuts, a les 11:30 UTC
Vent 19 kt del Sud
Temperatura 12°C
Humitat 88%
Pressió 1015 hPa
Visibilitat 10 km o més

METAR: NZWN 251130Z AUTO 17019KT 9999 BKN017/// BKN025/// 12/10 Q1015 NOSIG

Hora: 00:17 (12:17 UTC)

Pronòstic

L'informe es va fer fa 1 hora i 16 minuts, a les 11:01 UTC
Pronòstic vàlid del 25 a les 12 UTC al 26 a les 12 UTC
Vent 18 kt del Sud
Visibilitat 10 km o més
Escasses núvols a una alçada de 1400 ft
Cel ennuvolat a una alçada de 3000 ft
xàfecs de pluja

TAF: NZWN 251101Z 2512/2612 18018KT 9999 -SHRA FEW014 BKN030

Observacions i pronòstics meteorològics de més de 4000 aeroports (METAR i TAF).

Les estacions disponibles són els punts grocs i vermells al mapa.

Posi el ratolí al punt desitjat per veure el nom de l'estació.

Feu clic per veure les observacions i els pronòstics meteorològics.

Per canviar el mapa: feu clic els botons verds amb una creu de color negre per apropar; al botó verd amb un guió per allunyar la imatge; o en les fletxes verdes per a mapes adjacents.


METAR-TAF: